Time;durP1;ratioP1;P1;durP2;ratioP2;P2;SDS_P1;SDS_P2;PMS_P1;PMS_P2;Temp;Humidity;BMP_temperature;BMP_pressure;BME280_temperature;BME280_humidity;BME280_pressure;Samples;Min_cycle;Max_cycle;Signal;HPM_P1;HPM_P2
2022/03/02 00:00:01;;;;;;;77.05;37.97;;;;;;;;;;4772172;30;20483;-77
2022/03/02 00:02:49;;;;;;;75.00;37.30;;;;;;;;;;4777115;30;20483;-78
2022/03/02 00:05:36;;;;;;;69.57;36.97;;;;;;;;;;4770233;30;20051;-77
2022/03/02 00:08:21;;;;;;;65.88;34.53;;;;;;;;;;4770134;30;20487;-77
2022/03/02 00:11:07;;;;;;;73.70;37.08;;;;;;;;;;4770151;30;20044;-79
2022/03/02 00:13:52;;;;;;;73.45;36.55;;;;;;;;;;4770040;30;20056;-80
2022/03/02 00:16:38;;;;;;;80.13;40.08;;;;;;;;;;4775348;30;20044;-77
2022/03/02 00:19:23;;;;;;;74.70;39.72;;;;;;;;;;4771359;30;20056;-76
2022/03/02 00:22:11;;;;;;;77.50;37.10;;;;;;;;;;4775243;30;20051;-76
2022/03/02 00:24:57;;;;;;;65.85;32.92;;;;;;;;;;4768061;30;20410;-76
2022/03/02 00:27:42;;;;;;;70.53;33.90;;;;;;;;;;4768621;30;20044;-77
2022/03/02 00:30:30;;;;;;;73.80;32.28;;;;;;;;;;4781172;30;20044;-77
2022/03/02 00:33:16;;;;;;;95.88;42.60;;;;;;;;;;4791179;30;20051;-77
2022/03/02 00:36:03;;;;;;;81.80;35.92;;;;;;;;;;4772374;30;20055;-77
2022/03/02 00:38:49;;;;;;;53.58;28.27;;;;;;;;;;4771585;30;20514;-76
2022/03/02 00:41:34;;;;;;;47.72;25.08;;;;;;;;;;4771611;30;20047;-77
2022/03/02 00:44:20;;;;;;;60.17;29.15;;;;;;;;;;4771951;30;20048;-77
2022/03/02 00:47:06;;;;;;;55.08;29.00;;;;;;;;;;4771733;30;20047;-76
2022/03/02 00:49:52;;;;;;;52.28;26.15;;;;;;;;;;4771514;30;20056;-76
2022/03/02 00:52:38;;;;;;;43.20;24.13;;;;;;;;;;4771650;30;20051;-77
2022/03/02 00:55:25;;;;;;;38.85;21.77;;;;;;;;;;4777923;30;20051;-77
2022/03/02 00:58:11;;;;;;;33.90;18.67;;;;;;;;;;4771383;30;20048;-77
2022/03/02 01:00:56;;;;;;;45.05;22.38;;;;;;;;;;4771371;30;20055;-77
2022/03/02 01:03:42;;;;;;;32.25;17.42;;;;;;;;;;4771383;30;20055;-77
2022/03/02 01:06:27;;;;;;;44.22;24.45;;;;;;;;;;4774805;30;20044;-77
2022/03/02 01:09:13;;;;;;;49.05;27.20;;;;;;;;;;4771509;30;20047;-77
2022/03/02 01:11:59;;;;;;;142.63;89.70;;;;;;;;;;4771627;30;20483;-77
2022/03/02 01:14:44;;;;;;;48.13;27.25;;;;;;;;;;4771468;30;20048;-78
2022/03/02 01:17:30;;;;;;;44.22;25.42;;;;;;;;;;4777186;30;20039;-77
2022/03/02 01:20:20;;;;;;;40.85;24.25;;;;;;;;;;4771387;30;20051;-75
2022/03/02 01:23:06;;;;;;;41.17;23.35;;;;;;;;;;4770131;30;20059;-77
2022/03/02 01:25:52;;;;;;;42.92;23.77;;;;;;;;;;4771242;30;20063;-76
2022/03/02 01:28:37;;;;;;;40.90;21.95;;;;;;;;;;4771007;30;20043;-77
2022/03/02 01:31:25;;;;;;;43.13;24.65;;;;;;;;;;4770884;30;20060;-77
2022/03/02 01:34:10;;;;;;;53.70;27.50;;;;;;;;;;4770925;30;20475;-76
2022/03/02 01:36:56;;;;;;;49.53;26.95;;;;;;;;;;4770975;30;20060;-77
2022/03/02 01:39:42;;;;;;;53.78;28.90;;;;;;;;;;4777334;30;20043;-80
2022/03/02 01:42:27;;;;;;;52.10;28.38;;;;;;;;;;4770767;30;20039;-75
2022/03/02 01:45:14;;;;;;;46.50;25.98;;;;;;;;;;4770760;30;20067;-77
2022/03/02 01:48:04;;;;;;;38.05;23.45;;;;;;;;;;4771122;30;20048;-77
2022/03/02 01:50:49;;;;;;;45.22;23.85;;;;;;;;;;4769346;30;20044;-77
2022/03/02 01:53:35;;;;;;;46.03;26.58;;;;;;;;;;4770742;30;20048;-78
2022/03/02 01:56:20;;;;;;;48.38;25.15;;;;;;;;;;4776230;30;20047;-78
2022/03/02 01:59:06;;;;;;;43.28;25.00;;;;;;;;;;4771203;30;20052;-78
2022/03/02 02:01:51;;;;;;;44.40;26.00;;;;;;;;;;4771120;30;20052;-78
2022/03/02 02:04:37;;;;;;;48.50;24.83;;;;;;;;;;4770980;30;20487;-77
2022/03/02 02:07:22;;;;;;;43.20;25.40;;;;;;;;;;4771510;30;20047;-77
2022/03/02 02:10:09;;;;;;;44.72;25.40;;;;;;;;;;4771365;30;20059;-77
2022/03/02 02:12:54;;;;;;;48.47;27.65;;;;;;;;;;4757379;30;20051;-77
2022/03/02 02:15:40;;;;;;;41.03;25.15;;;;;;;;;;4770856;30;20067;-77
2022/03/02 02:18:26;;;;;;;46.10;26.42;;;;;;;;;;4770641;30;20044;-77
2022/03/02 02:21:11;;;;;;;47.33;25.80;;;;;;;;;;4770632;30;20055;-77
2022/03/02 02:23:57;;;;;;;60.05;29.90;;;;;;;;;;4769811;30;20048;-77
2022/03/02 02:26:42;;;;;;;46.42;26.40;;;;;;;;;;4770477;30;20055;-77
2022/03/02 02:29:29;;;;;;;46.50;25.60;;;;;;;;;;4770431;30;20503;-77
2022/03/02 02:32:16;;;;;;;48.78;26.20;;;;;;;;;;4770597;30;20399;-77
2022/03/02 02:35:01;;;;;;;44.22;25.42;;;;;;;;;;4770681;30;20051;-77
2022/03/02 02:37:47;;;;;;;58.63;30.02;;;;;;;;;;4770553;30;20482;-77
2022/03/02 02:40:34;;;;;;;58.70;32.50;;;;;;;;;;4770213;30;20398;-77
2022/03/02 02:43:22;;;;;;;55.28;31.73;;;;;;;;;;4770365;30;20056;-77
2022/03/02 02:46:07;;;;;;;53.38;30.25;;;;;;;;;;4773565;30;20081;-77
2022/03/02 02:48:52;;;;;;;63.20;31.08;;;;;;;;;;4785984;30;20039;-78
2022/03/02 02:51:38;;;;;;;54.70;29.23;;;;;;;;;;4787649;30;20076;-77
2022/03/02 02:54:24;;;;;;;58.65;30.77;;;;;;;;;;4774408;30;20055;-77
2022/03/02 02:57:10;;;;;;;60.08;30.30;;;;;;;;;;4773743;30;20044;-77
2022/03/02 02:59:56;;;;;;;60.38;29.98;;;;;;;;;;4773531;30;20055;-77
2022/03/02 03:02:42;;;;;;;50.88;29.80;;;;;;;;;;4773572;30;20044;-78
2022/03/02 03:05:29;;;;;;;54.92;29.10;;;;;;;;;;4773599;30;20063;-78
2022/03/02 03:08:15;;;;;;;52.92;29.10;;;;;;;;;;4773327;30;20048;-78
2022/03/02 03:11:03;;;;;;;56.38;30.02;;;;;;;;;;4773329;30;20051;-77
2022/03/02 03:13:49;;;;;;;52.03;28.92;;;;;;;;;;4773134;30;20056;-77
2022/03/02 03:16:34;;;;;;;52.28;28.98;;;;;;;;;;4773069;30;20055;-77
2022/03/02 03:19:19;;;;;;;56.95;29.58;;;;;;;;;;4773370;30;20044;-77
2022/03/02 03:22:06;;;;;;;55.38;28.70;;;;;;;;;;4773024;30;20048;-77
2022/03/02 03:24:51;;;;;;;57.85;29.58;;;;;;;;;;4779295;30;20052;-77
2022/03/02 03:27:37;;;;;;;57.05;31.10;;;;;;;;;;4773129;30;20056;-77
2022/03/02 03:30:24;;;;;;;69.63;33.78;;;;;;;;;;4772834;30;20044;-77
2022/03/02 03:33:09;;;;;;;63.30;33.90;;;;;;;;;;4773958;30;20052;-78
2022/03/02 03:35:55;;;;;;;66.97;33.53;;;;;;;;;;4776271;30;20051;-77
2022/03/02 03:38:41;;;;;;;62.78;32.28;;;;;;;;;;4778746;30;20047;-77
2022/03/02 03:41:26;;;;;;;56.53;30.55;;;;;;;;;;4772797;30;20051;-77
2022/03/02 03:44:12;;;;;;;50.38;28.15;;;;;;;;;;4772995;30;20399;-77
2022/03/02 03:46:57;;;;;;;54.28;27.30;;;;;;;;;;4772717;30;20043;-78
2022/03/02 03:49:43;;;;;;;57.47;29.77;;;;;;;;;;4777735;30;20064;-78
2022/03/02 03:52:29;;;;;;;50.30;27.83;;;;;;;;;;4772885;30;20060;-77
2022/03/02 03:55:15;;;;;;;50.75;28.40;;;;;;;;;;4772787;30;20063;-77
2022/03/02 03:58:01;;;;;;;53.40;29.27;;;;;;;;;;4772259;30;20044;-77
2022/03/02 04:00:46;;;;;;;47.95;28.42;;;;;;;;;;4772728;30;20056;-78
2022/03/02 04:03:34;;;;;;;49.22;26.58;;;;;;;;;;4772479;30;20490;-78
2022/03/02 04:06:20;;;;;;;50.00;26.27;;;;;;;;;;4772384;30;20052;-79
2022/03/02 04:09:06;;;;;;;50.80;27.23;;;;;;;;;;4772350;30;20051;-78
2022/03/02 04:11:51;;;;;;;53.70;26.30;;;;;;;;;;4772284;30;20056;-78
2022/03/02 04:14:37;;;;;;;50.55;28.08;;;;;;;;;;4778094;30;20052;-78
2022/03/02 04:17:23;;;;;;;53.38;27.52;;;;;;;;;;4772352;30;20056;-78
2022/03/02 04:20:09;;;;;;;52.97;28.45;;;;;;;;;;4772102;30;20056;-77
2022/03/02 04:22:54;;;;;;;55.88;30.95;;;;;;;;;;4774168;30;20044;-77
2022/03/02 04:25:39;;;;;;;62.15;31.38;;;;;;;;;;4772108;30;20078;-77
2022/03/02 04:28:25;;;;;;;53.50;27.95;;;;;;;;;;4772334;30;20486;-77
2022/03/02 04:31:11;;;;;;;53.45;28.77;;;;;;;;;;4772258;30;20047;-77
2022/03/02 04:33:57;;;;;;;49.65;27.08;;;;;;;;;;4771984;30;20051;-77
2022/03/02 04:36:42;;;;;;;76.13;36.70;;;;;;;;;;4772067;30;20491;-78
2022/03/02 04:39:27;;;;;;;75.10;38.63;;;;;;;;;;4777921;30;20052;-78
2022/03/02 04:42:13;;;;;;;67.25;35.65;;;;;;;;;;4771839;30;20051;-77
2022/03/02 04:44:59;;;;;;;60.30;31.60;;;;;;;;;;4777795;30;20056;-78
2022/03/02 04:47:44;;;;;;;59.47;31.88;;;;;;;;;;4771644;30;20048;-78
2022/03/02 04:50:30;;;;;;;61.53;30.40;;;;;;;;;;4771709;30;20052;-77
2022/03/02 04:53:16;;;;;;;55.80;30.58;;;;;;;;;;4772039;30;20047;-77
2022/03/02 04:56:01;;;;;;;63.95;31.17;;;;;;;;;;4772333;30;20056;-77
2022/03/02 04:58:46;;;;;;;60.35;29.88;;;;;;;;;;4771895;30;20044;-78
2022/03/02 05:01:32;;;;;;;57.05;27.98;;;;;;;;;;4770972;30;20048;-77
2022/03/02 05:04:18;;;;;;;56.70;30.20;;;;;;;;;;4774842;30;20039;-81
2022/03/02 05:07:04;;;;;;;56.15;29.70;;;;;;;;;;4792236;30;20040;-79
2022/03/02 05:09:50;;;;;;;55.15;29.75;;;;;;;;;;4771633;30;20048;-78
2022/03/02 05:12:35;;;;;;;69.40;33.05;;;;;;;;;;4776804;30;20047;-78
2022/03/02 05:15:22;;;;;;;65.35;33.72;;;;;;;;;;4771959;30;20051;-79
2022/03/02 05:18:08;;;;;;;69.22;35.42;;;;;;;;;;4771868;30;20043;-79
2022/03/02 05:20:53;;;;;;;82.10;38.72;;;;;;;;;;4771136;30;20055;-78
2022/03/02 05:23:39;;;;;;;75.22;37.35;;;;;;;;;;4771485;30;20491;-78
2022/03/02 05:26:24;;;;;;;62.03;35.22;;;;;;;;;;4770963;30;20055;-79
2022/03/02 05:29:11;;;;;;;71.57;34.05;;;;;;;;;;4770482;30;20406;-78
2022/03/02 05:31:56;;;;;;;58.47;31.33;;;;;;;;;;4771096;30;20047;-78
2022/03/02 05:34:41;;;;;;;65.82;34.28;;;;;;;;;;4771280;30;20406;-79
2022/03/02 05:37:27;;;;;;;71.35;34.00;;;;;;;;;;4770828;30;20052;-78
2022/03/02 05:40:15;;;;;;;54.50;29.52;;;;;;;;;;4771145;30;20052;-79
2022/03/02 05:43:01;;;;;;;48.70;26.58;;;;;;;;;;4770477;30;20498;-79
2022/03/02 05:45:47;;;;;;;53.75;27.75;;;;;;;;;;4770821;30;20418;-78
2022/03/02 05:48:32;;;;;;;49.15;28.15;;;;;;;;;;4770262;30;20048;-78
2022/03/02 05:51:19;;;;;;;54.38;30.17;;;;;;;;;;4770514;30;20414;-79
2022/03/02 05:54:05;;;;;;;62.47;32.08;;;;;;;;;;4770860;30;20043;-78
2022/03/02 05:56:51;;;;;;;65.32;35.88;;;;;;;;;;4770465;30;20051;-77
2022/03/02 05:59:36;;;;;;;66.78;35.38;;;;;;;;;;4771282;30;20055;-77
2022/03/02 06:02:22;;;;;;;59.33;33.25;;;;;;;;;;4768892;30;20055;-77
2022/03/02 06:05:10;;;;;;;51.90;29.90;;;;;;;;;;4768912;30;20491;-78
2022/03/02 06:07:55;;;;;;;52.70;29.73;;;;;;;;;;4770115;30;20044;-77
2022/03/02 06:10:41;;;;;;;67.15;32.65;;;;;;;;;;4770275;30;20056;-77
2022/03/02 06:13:27;;;;;;;77.97;34.42;;;;;;;;;;4776282;30;20055;-77
2022/03/02 06:16:12;;;;;;;86.00;37.72;;;;;;;;;;4770654;30;20040;-77
2022/03/02 06:18:58;;;;;;;72.95;34.95;;;;;;;;;;4770692;30;20398;-78
2022/03/02 06:21:46;;;;;;;64.40;34.22;;;;;;;;;;4772070;30;20047;-78
2022/03/02 06:24:32;;;;;;;62.63;32.80;;;;;;;;;;4774103;30;20407;-77
2022/03/02 06:27:20;;;;;;;60.10;33.38;;;;;;;;;;4774225;30;20490;-77
2022/03/02 06:30:06;;;;;;;59.03;33.20;;;;;;;;;;4773940;30;20048;-77
2022/03/02 06:32:52;;;;;;;52.35;31.42;;;;;;;;;;4773911;30;20047;-77
2022/03/02 06:35:38;;;;;;;59.85;32.67;;;;;;;;;;4779019;30;20043;-77
2022/03/02 06:38:23;;;;;;;59.63;32.75;;;;;;;;;;4773555;30;20044;-77
2022/03/02 06:41:28;;;;;;;49.75;27.45;;;;;;;;;;4774246;30;20063;-77
2022/03/02 06:44:30;;;;;;;47.85;25.80;;;;;;;;;;4773649;30;20044;-77
2022/03/02 06:47:20;;;;;;;41.08;22.33;;;;;;;;;;4774787;30;20059;-77
2022/03/02 06:50:09;;;;;;;37.15;19.98;;;;;;;;;;4773560;30;20055;-77
2022/03/02 06:52:55;;;;;;;26.95;16.27;;;;;;;;;;4773552;30;20056;-77
2022/03/02 06:55:43;;;;;;;31.33;18.73;;;;;;;;;;4773992;30;20048;-77
2022/03/02 06:58:37;;;;;;;27.67;17.02;;;;;;;;;;4773752;30;20398;-77
2022/03/02 07:01:27;;;;;;;26.05;16.88;;;;;;;;;;4773848;30;20056;-77
2022/03/02 07:04:14;;;;;;;27.05;17.17;;;;;;;;;;4773205;30;20051;-78
2022/03/02 07:07:02;;;;;;;32.33;18.00;;;;;;;;;;4773151;30;20395;-78
2022/03/02 07:09:47;;;;;;;34.10;20.50;;;;;;;;;;4779024;30;20059;-77
2022/03/02 07:12:33;;;;;;;40.33;22.13;;;;;;;;;;4779095;30;20498;-77
2022/03/02 07:15:19;;;;;;;36.75;21.13;;;;;;;;;;4773570;30;20047;-77
2022/03/02 07:18:07;;;;;;;33.95;20.05;;;;;;;;;;4773181;30;20055;-77
2022/03/02 07:20:55;;;;;;;35.83;20.60;;;;;;;;;;4791065;30;20039;-78
2022/03/02 07:23:54;;;;;;;33.08;19.63;;;;;;;;;;4787799;30;20039;-78
2022/03/02 07:26:45;;;;;;;37.80;18.38;;;;;;;;;;4773512;30;20491;-77
2022/03/02 07:29:34;;;;;;;27.00;15.82;;;;;;;;;;4772843;30;20056;-78
2022/03/02 07:32:28;;;;;;;97.78;50.10;;;;;;;;;;4772469;30;20514;-76
2022/03/02 07:35:15;;;;;;;36.95;19.30;;;;;;;;;;4778549;30;20052;-77
2022/03/02 07:38:02;;;;;;;56.72;27.35;;;;;;;;;;4773472;30;20403;-78
2022/03/02 07:40:49;;;;;;;32.97;17.70;;;;;;;;;;4773497;30;20064;-76
2022/03/02 07:43:38;;;;;;;21.10;11.02;;;;;;;;;;4773053;30;20051;-77
2022/03/02 07:46:28;;;;;;;18.25;10.30;;;;;;;;;;4779534;30;20059;-77
2022/03/02 07:49:13;;;;;;;42.60;17.30;;;;;;;;;;4772495;30;20043;-77
2022/03/02 07:52:02;;;;;;;24.83;14.27;;;;;;;;;;4772190;30;20055;-77
2022/03/02 07:54:54;;;;;;;30.45;18.02;;;;;;;;;;4773134;30;20059;-77
2022/03/02 07:57:39;;;;;;;41.85;21.25;;;;;;;;;;4772561;30;20044;-76
2022/03/02 08:00:28;;;;;;;59.47;25.30;;;;;;;;;;4777940;30;20059;-76
2022/03/02 08:03:13;;;;;;;67.38;34.15;;;;;;;;;;4772436;30;20051;-77
2022/03/02 08:05:59;;;;;;;56.67;27.83;;;;;;;;;;4772496;30;20047;-77
2022/03/02 08:08:45;;;;;;;46.65;21.95;;;;;;;;;;4778012;30;20047;-77
2022/03/02 08:11:33;;;;;;;38.60;23.10;;;;;;;;;;4772292;30;20482;-76
2022/03/02 08:14:18;;;;;;;17.75;10.70;;;;;;;;;;4772187;30;20044;-76
2022/03/02 08:17:04;;;;;;;30.02;17.60;;;;;;;;;;4772110;30;20406;-77
2022/03/02 08:19:50;;;;;;;29.33;15.32;;;;;;;;;;4772492;30;20040;-76
2022/03/02 08:22:40;;;;;;;41.03;20.20;;;;;;;;;;4774998;30;20052;-77
2022/03/02 08:25:28;;;;;;;21.38;13.90;;;;;;;;;;4772630;30;20059;-76
2022/03/02 08:28:14;;;;;;;38.10;20.90;;;;;;;;;;4778666;30;20048;-77
2022/03/02 08:31:00;;;;;;;23.80;12.73;;;;;;;;;;4772276;30;20056;-78
2022/03/02 08:33:45;;;;;;;33.08;18.55;;;;;;;;;;4771949;30;20487;-76
2022/03/02 08:36:33;;;;;;;46.42;23.38;;;;;;;;;;4771665;30;20048;-77
2022/03/02 08:39:18;;;;;;;27.40;14.93;;;;;;;;;;4772018;30;20478;-76
2022/03/02 08:42:05;;;;;;;30.02;13.93;;;;;;;;;;4772058;30;20048;-77
2022/03/02 08:44:49;;;;;;;11.05;7.75;;;;;;;;;;4770793;30;20047;-77
2022/03/02 08:47:35;;;;;;;24.90;13.52;;;;;;;;;;4777660;30;20406;-77
2022/03/02 08:50:20;;;;;;;26.92;14.88;;;;;;;;;;4771558;30;20067;-77
2022/03/02 08:53:06;;;;;;;26.73;13.55;;;;;;;;;;4771503;30;20059;-77
2022/03/02 08:55:53;;;;;;;27.70;16.65;;;;;;;;;;4771657;30;20047;-76
2022/03/02 08:58:41;;;;;;;19.35;11.52;;;;;;;;;;4771281;30;20048;-76
2022/03/02 09:01:29;;;;;;;21.35;9.80;;;;;;;;;;4771474;30;20374;-76
2022/03/02 09:04:16;;;;;;;17.85;8.95;;;;;;;;;;4771663;30;20055;-77
2022/03/02 09:07:04;;;;;;;13.93;8.25;;;;;;;;;;4771862;30;20060;-77
2022/03/02 09:09:50;;;;;;;23.52;12.25;;;;;;;;;;4774878;30;20482;-76
2022/03/02 09:12:36;;;;;;;19.77;11.02;;;;;;;;;;4771583;30;20048;-75
2022/03/02 09:15:21;;;;;;;17.38;9.85;;;;;;;;;;4777636;30;20052;-77
2022/03/02 09:18:07;;;;;;;19.65;11.27;;;;;;;;;;4771395;30;20047;-77
2022/03/02 09:20:57;;;;;;;25.45;12.88;;;;;;;;;;4771383;30;20399;-77
2022/03/02 09:23:44;;;;;;;12.68;8.73;;;;;;;;;;4771026;30;20048;-76
2022/03/02 09:26:31;;;;;;;11.38;7.22;;;;;;;;;;4770813;30;20059;-82
2022/03/02 09:29:17;;;;;;;22.00;11.98;;;;;;;;;;4771183;30;20051;-79
2022/03/02 09:32:03;;;;;;;27.23;13.70;;;;;;;;;;4777049;30;20044;-79
2022/03/02 09:34:53;;;;;;;15.23;9.30;;;;;;;;;;4774901;30;20048;-79
2022/03/02 09:37:48;;;;;;;25.23;14.50;;;;;;;;;;4794384;29;20028;-78
2022/03/02 09:40:35;;;;;;;19.92;10.63;;;;;;;;;;4773287;30;20051;-79
2022/03/02 09:43:25;;;;;;;27.98;15.10;;;;;;;;;;4771797;30;20055;-78
2022/03/02 09:46:11;;;;;;;11.57;6.95;;;;;;;;;;4770965;30;20040;-78
2022/03/02 09:49:01;;;;;;;23.40;13.70;;;;;;;;;;4770988;30;20059;-78
2022/03/02 09:51:52;;;;;;;12.25;6.70;;;;;;;;;;4771989;30;20051;-77
2022/03/02 09:54:47;;;;;;;27.73;13.45;;;;;;;;;;4771018;30;20055;-77
2022/03/02 09:57:40;;;;;;;23.98;13.90;;;;;;;;;;4771660;30;20059;-79
2022/03/02 10:00:28;;;;;;;27.77;11.88;;;;;;;;;;4770971;30;20391;-77
2022/03/02 10:03:19;;;;;;;20.65;11.60;;;;;;;;;;4771328;30;20056;-77
2022/03/02 10:06:05;;;;;;;23.40;12.07;;;;;;;;;;4763731;30;20056;-79
2022/03/02 10:08:53;;;;;;;15.05;9.07;;;;;;;;;;4770259;30;20056;-83
2022/03/02 10:11:45;;;;;;;30.88;14.18;;;;;;;;;;4771348;30;20462;-86
2022/03/02 10:14:30;;;;;;;13.93;8.55;;;;;;;;;;4770590;30;20487;-84
2022/03/02 10:17:20;;;;;;;20.83;8.50;;;;;;;;;;4771446;30;20443;-85
2022/03/02 10:20:17;;;;;;;22.52;10.80;;;;;;;;;;4771585;30;20051;-85
2022/03/02 10:23:30;;;;;;;17.52;9.15;;;;;;;;;;4776844;30;20056;-83
2022/03/02 10:26:19;;;;;;;22.77;9.63;;;;;;;;;;4774694;30;20055;-80
2022/03/02 10:29:12;;;;;;;23.63;13.68;;;;;;;;;;4770747;30;20055;-79
2022/03/02 10:32:05;;;;;;;46.00;18.77;;;;;;;;;;4771564;30;20056;-78
2022/03/02 10:34:57;;;;;;;54.17;24.17;;;;;;;;;;4770997;30;20048;-78
2022/03/02 10:37:52;;;;;;;34.17;16.98;;;;;;;;;;4774786;30;20399;-83
2022/03/02 10:40:38;;;;;;;;;;;;;;;;;;4776137;30;20047;-81
2022/03/02 10:43:33;;;;;;;25.58;13.77;;;;;;;;;;4773947;30;19918;-79
2022/03/02 10:46:23;;;;;;;25.52;14.93;;;;;;;;;;4771827;30;20047;-83
2022/03/02 10:49:22;;;;;;;19.90;10.73;;;;;;;;;;4771832;30;20036;-83
2022/03/02 10:52:12;;;;;;;37.05;19.50;;;;;;;;;;4771076;30;20056;-82
2022/03/02 10:55:05;;;;;;;23.10;13.93;;;;;;;;;;4771710;30;20395;-83
2022/03/02 10:57:54;;;;;;;27.67;16.67;;;;;;;;;;4772768;30;20047;-83
2022/03/02 11:00:40;;;;;;;30.17;17.00;;;;;;;;;;4772510;30;20043;-83
2022/03/02 11:03:28;;;;;;;13.35;8.40;;;;;;;;;;4770997;30;20059;-83
2022/03/02 11:06:14;;;;;;;25.33;14.13;;;;;;;;;;4770921;30;20056;-84
2022/03/02 11:09:02;;;;;;;26.15;14.02;;;;;;;;;;4774290;30;20040;-83
2022/03/02 11:11:47;;;;;;;23.50;13.45;;;;;;;;;;4773818;30;20052;-84
2022/03/02 11:14:33;;;;;;;25.90;12.90;;;;;;;;;;4773758;30;20056;-84
2022/03/02 11:17:18;;;;;;;21.65;12.25;;;;;;;;;;4772166;30;20048;-80
2022/03/02 11:20:07;;;;;;;15.57;8.20;;;;;;;;;;4773055;30;20052;-82
2022/03/02 11:22:59;;;;;;;18.63;9.90;;;;;;;;;;4773357;30;20402;-82
2022/03/02 11:25:56;;;;;;;17.90;9.95;;;;;;;;;;4779019;30;20487;-83
2022/03/02 11:28:48;;;;;;;17.88;10.23;;;;;;;;;;4780174;30;20478;-84
2022/03/02 11:32:10;;;;;;;26.67;11.57;;;;;;;;;;4773752;30;20478;-83
2022/03/02 11:34:58;;;;;;;13.60;6.45;;;;;;;;;;4772062;30;20064;-84
2022/03/02 11:37:43;;;;;;;14.32;6.90;;;;;;;;;;4772860;30;20052;-82
2022/03/02 11:40:38;;;;;;;13.68;7.72;;;;;;;;;;4773062;30;20047;-82
2022/03/02 11:43:28;;;;;;;11.80;5.88;;;;;;;;;;4778362;30;20055;-82
2022/03/02 11:46:15;;;;;;;17.83;9.35;;;;;;;;;;4773346;30;20047;-83
2022/03/02 11:49:04;;;;;;;17.50;8.52;;;;;;;;;;4772909;30;20060;-84
2022/03/02 11:52:06;;;;;;;24.63;11.98;;;;;;;;;;4782342;29;20047;-85
2022/03/02 11:54:55;;;;;;;21.08;10.90;;;;;;;;;;4791253;29;20043;-83
2022/03/02 11:57:48;;;;;;;20.30;9.07;;;;;;;;;;4779134;30;20047;-83
2022/03/02 12:00:33;;;;;;;24.08;9.80;;;;;;;;;;4773302;30;20402;-82
2022/03/02 12:03:19;;;;;;;19.48;8.25;;;;;;;;;;4776263;30;20073;-85
2022/03/02 12:06:10;;;;;;;13.23;5.60;;;;;;;;;;4782624;30;20055;-84
2022/03/02 12:08:56;;;;;;;12.73;8.30;;;;;;;;;;4777683;30;20048;-83
2022/03/02 12:11:42;;;;;;;15.95;8.88;;;;;;;;;;4772628;30;20043;-83
2022/03/02 12:14:27;;;;;;;11.82;5.32;;;;;;;;;;4774331;30;20047;-84
2022/03/02 12:17:26;;;;;;;17.80;8.75;;;;;;;;;;4779948;30;20056;-83
2022/03/02 12:20:17;;;;;;;21.08;9.73;;;;;;;;;;4772757;30;20490;-83
2022/03/02 12:23:04;;;;;;;14.35;7.60;;;;;;;;;;4772481;30;20047;-84
2022/03/02 12:25:51;;;;;;;17.77;9.18;;;;;;;;;;4772508;30;20502;-83
2022/03/02 12:28:39;;;;;;;11.02;6.43;;;;;;;;;;4772669;30;20055;-84
2022/03/02 12:31:30;;;;;;;39.20;13.13;;;;;;;;;;4771992;30;20055;-85
2022/03/02 12:34:17;;;;;;;37.63;15.50;;;;;;;;;;4772412;30;20052;-85
2022/03/02 12:37:03;;;;;;;14.20;7.35;;;;;;;;;;4773028;30;20052;-85
2022/03/02 12:39:52;;;;;;;14.10;7.68;;;;;;;;;;4774559;30;20047;-83
2022/03/02 12:42:40;;;;;;;17.50;8.02;;;;;;;;;;4763526;30;20506;-83
2022/03/02 12:45:26;;;;;;;18.40;8.93;;;;;;;;;;4772685;30;20051;-86
2022/03/02 12:48:14;;;;;;;12.80;7.05;;;;;;;;;;4772458;30;20044;-85
2022/03/02 12:51:00;;;;;;;8.63;5.38;;;;;;;;;;4775666;30;20052;-85
2022/03/02 12:53:47;;;;;;;14.65;6.43;;;;;;;;;;4772056;30;20414;-85
2022/03/02 12:56:34;;;;;;;22.10;11.50;;;;;;;;;;4776135;30;20052;-84
2022/03/02 12:59:20;;;;;;;8.95;4.53;;;;;;;;;;4776069;30;20044;-83
2022/03/02 13:02:17;;;;;;;13.65;8.25;;;;;;;;;;4775475;30;20052;-84
2022/03/02 13:05:31;;;;;;;11.25;5.93;;;;;;;;;;4779973;30;20044;-81
2022/03/02 13:08:31;;;;;;;15.50;7.65;;;;;;;;;;4775644;30;20052;-84
2022/03/02 13:11:24;;;;;;;19.27;10.18;;;;;;;;;;4777744;30;20073;-85
2022/03/02 13:14:32;;;;;;;17.33;7.78;;;;;;;;;;4774260;30;20052;-83
2022/03/02 13:17:19;;;;;;;8.77;5.25;;;;;;;;;;4771983;30;20043;-83
2022/03/02 13:20:17;;;;;;;9.43;6.90;;;;;;;;;;4771924;30;20048;-84
2022/03/02 13:23:24;;;;;;;12.00;6.50;;;;;;;;;;4774713;30;20056;-85
2022/03/02 13:26:12;;;;;;;13.85;7.65;;;;;;;;;;4772612;30;20055;-83
2022/03/02 13:29:11;;;;;;;19.20;8.25;;;;;;;;;;4771543;30;20059;-83
2022/03/02 13:32:03;;;;;;;4.57;3.38;;;;;;;;;;4776133;30;20048;-82
2022/03/02 13:35:09;;;;;;;18.48;8.50;;;;;;;;;;4771635;30;20059;-83
2022/03/02 13:38:29;;;;;;;14.27;6.82;;;;;;;;;;4773082;30;20048;-80
2022/03/02 13:41:46;;;;;;;13.25;6.70;;;;;;;;;;4771390;30;20402;-81
2022/03/02 13:45:12;;;;;;;13.35;8.35;;;;;;;;;;4771258;30;20063;-81
2022/03/02 13:48:18;;;;;;;17.10;6.95;;;;;;;;;;4771131;30;20051;-83
2022/03/02 13:51:08;;;;;;;26.38;11.23;;;;;;;;;;4771203;30;20059;-81
2022/03/02 13:54:00;;;;;;;20.58;8.57;;;;;;;;;;4776319;30;20039;-82
2022/03/02 13:56:48;;;;;;;14.77;8.32;;;;;;;;;;4770892;30;20052;-82
2022/03/02 13:59:49;;;;;;;11.25;7.22;;;;;;;;;;4770772;30;20043;-82
2022/03/02 14:02:36;;;;;;;19.85;7.15;;;;;;;;;;4769971;30;20059;-86
2022/03/02 14:05:28;;;;;;;11.35;6.28;;;;;;;;;;4770803;30;20051;-83
2022/03/02 14:08:15;;;;;;;19.30;6.75;;;;;;;;;;4793603;29;20036;-81
2022/03/02 14:11:01;;;;;;;16.70;8.07;;;;;;;;;;4776123;30;20048;-83
2022/03/02 14:13:46;;;;;;;12.70;7.90;;;;;;;;;;4771138;30;20486;-83
2022/03/02 14:16:32;;;;;;;16.67;9.70;;;;;;;;;;4770912;30;20055;-84
2022/03/02 14:19:17;;;;;;;17.27;9.02;;;;;;;;;;4770866;30;20056;-83
2022/03/02 14:22:11;;;;;;;14.90;7.90;;;;;;;;;;4770885;30;20048;-83
2022/03/02 14:24:57;;;;;;;14.45;7.90;;;;;;;;;;4770664;30;20055;-82
2022/03/02 14:27:42;;;;;;;7.85;4.32;;;;;;;;;;4770675;30;20494;-83
2022/03/02 14:30:31;;;;;;;19.65;9.07;;;;;;;;;;4770361;30;20326;-84
2022/03/02 14:33:19;;;;;;;11.90;6.45;;;;;;;;;;4771310;30;20040;-83
2022/03/02 14:36:15;;;;;;;11.32;6.45;;;;;;;;;;4770474;30;20055;-85
2022/03/02 14:39:02;;;;;;;11.68;6.10;;;;;;;;;;4778399;30;20056;-86
2022/03/02 14:41:50;;;;;;;15.65;8.38;;;;;;;;;;4773126;30;20047;-83
2022/03/02 14:44:36;;;;;;;12.07;6.10;;;;;;;;;;4761386;30;20059;-86
2022/03/02 14:47:26;;;;;;;19.98;11.20;;;;;;;;;;4774238;30;20055;-84
2022/03/02 14:50:24;;;;;;;21.77;9.60;;;;;;;;;;4773780;30;20052;-84
2022/03/02 14:53:23;;;;;;;11.70;6.57;;;;;;;;;;4774396;30;20407;-85
2022/03/02 14:56:12;;;;;;;12.20;6.32;;;;;;;;;;4773756;30;20048;-81
2022/03/02 14:58:57;;;;;;;11.30;7.00;;;;;;;;;;4774759;30;20498;-82
2022/03/02 15:01:43;;;;;;;18.77;8.15;;;;;;;;;;4774071;30;20059;-82
2022/03/02 15:04:28;;;;;;;12.18;7.88;;;;;;;;;;4773841;30;20059;-82
2022/03/02 15:07:14;;;;;;;16.10;7.53;;;;;;;;;;4773593;30;20499;-84
2022/03/02 15:10:11;;;;;;;10.25;5.78;;;;;;;;;;4773556;30;20406;-79
2022/03/02 15:16:00;;;;;;;20.48;8.68;;;;;;;;;;4773634;30;20052;-83
2022/03/02 15:18:57;;;;;;;8.63;4.20;;;;;;;;;;4773549;30;20048;-75
2022/03/02 15:21:44;;;;;;;24.95;11.35;;;;;;;;;;4779602;30;20486;-78
2022/03/02 15:24:32;;;;;;;14.70;7.68;;;;;;;;;;4773136;30;20426;-81
2022/03/02 15:27:18;;;;;;;18.63;8.55;;;;;;;;;;4774875;30;20055;-77
2022/03/02 15:30:22;;;;;;;14.57;8.00;;;;;;;;;;4773089;30;20044;-78
2022/03/02 15:33:11;;;;;;;15.48;7.75;;;;;;;;;;4773018;30;20051;-77
2022/03/02 15:36:11;;;;;;;19.25;5.80;;;;;;;;;;4772827;30;20044;-78
2022/03/02 15:38:58;;;;;;;11.90;6.78;;;;;;;;;;4772931;30;20056;-83
2022/03/02 15:41:54;;;;;;;19.85;6.30;;;;;;;;;;4773969;30;20044;-83
2022/03/02 15:45:02;;;;;;;18.02;9.65;;;;;;;;;;4773488;30;20056;-77
2022/03/02 15:47:48;;;;;;;20.45;9.25;;;;;;;;;;4773445;30;20043;-78
2022/03/02 15:50:40;;;;;;;17.05;8.93;;;;;;;;;;4772284;30;20052;-77
2022/03/02 15:53:28;;;;;;;17.45;8.82;;;;;;;;;;4772625;30;20509;-78
2022/03/02 15:56:20;;;;;;;18.35;9.13;;;;;;;;;;4773045;30;20052;-77
2022/03/02 15:59:07;;;;;;;21.50;11.93;;;;;;;;;;4773485;30;20048;-76
2022/03/02 16:01:53;;;;;;;26.38;13.60;;;;;;;;;;4773821;30;20051;-78
2022/03/02 16:04:38;;;;;;;32.30;12.60;;;;;;;;;;4773195;30;20139;-80
2022/03/02 16:07:24;;;;;;;15.30;9.35;;;;;;;;;;4775138;30;20471;-82
2022/03/02 16:10:09;;;;;;;27.33;13.00;;;;;;;;;;4759411;30;20056;-82
2022/03/02 16:12:54;;;;;;;27.88;14.48;;;;;;;;;;4773378;30;20059;-76
2022/03/02 16:15:44;;;;;;;30.05;14.73;;;;;;;;;;4780274;30;20056;-82
2022/03/02 16:18:31;;;;;;;14.60;8.32;;;;;;;;;;4773294;30;20052;-78
2022/03/02 16:21:23;;;;;;;22.38;12.25;;;;;;;;;;4773297;30;20039;-82
2022/03/02 16:24:29;;;;;;;22.70;13.32;;;;;;;;;;4786544;29;20044;-78
2022/03/02 16:27:26;;;;;;;41.17;15.85;;;;;;;;;;4782728;30;20052;-77